createdAt,value
2023-05-06T00:00:06.157Z,13.40
2023-05-06T00:02:33.110Z,13.40
2023-05-06T00:05:01.080Z,13.40
2023-05-06T00:07:29.184Z,13.40
2023-05-06T00:09:55.931Z,13.40
2023-05-06T00:12:22.737Z,13.40
2023-05-06T00:14:50.138Z,13.40
2023-05-06T00:17:17.263Z,13.40
2023-05-06T00:19:44.685Z,13.40
2023-05-06T00:22:11.563Z,13.40
2023-05-06T00:24:39.635Z,13.40
2023-05-06T00:27:06.505Z,13.50
2023-05-06T00:29:33.476Z,13.60
2023-05-06T00:32:00.991Z,13.50
2023-05-06T00:34:27.803Z,13.50
2023-05-06T00:36:55.029Z,13.50
2023-05-06T00:39:22.646Z,13.50
2023-05-06T00:41:51.154Z,13.50
2023-05-06T00:44:18.264Z,13.50
2023-05-06T00:46:45.053Z,13.50
2023-05-06T00:49:13.206Z,13.50
2023-05-06T00:51:40.201Z,13.50
2023-05-06T00:54:07.112Z,13.50
2023-05-06T00:56:33.992Z,13.50
2023-05-06T00:59:02.635Z,13.50
2023-05-06T01:01:31.081Z,13.40
2023-05-06T01:06:45.712Z,13.40
2023-05-06T01:09:19.933Z,13.40
2023-05-06T01:11:51.008Z,13.40
2023-05-06T01:14:33.255Z,13.40
2023-05-06T01:17:03.908Z,13.40
2023-05-06T01:19:49.277Z,13.40
2023-05-06T01:22:18.124Z,13.40
2023-05-06T01:24:47.234Z,13.50
2023-05-06T01:27:16.677Z,13.40
2023-05-06T01:29:45.757Z,13.40
2023-05-06T01:32:33.922Z,13.40
2023-05-06T01:35:12.391Z,13.40
2023-05-06T01:37:46.428Z,13.40
2023-05-06T01:40:16.772Z,13.40
2023-05-06T01:42:47.593Z,13.40
2023-05-06T01:45:17.154Z,13.40
2023-05-06T01:47:45.724Z,13.40
2023-05-06T01:50:13.177Z,13.40
2023-05-06T01:52:40.073Z,13.30
2023-05-06T01:55:08.492Z,13.30
2023-05-06T01:57:37.288Z,13.30
2023-05-06T02:00:05.412Z,13.30
2023-05-06T02:02:32.229Z,13.30
2023-05-06T02:04:59.060Z,13.40
2023-05-06T02:07:26.135Z,13.40
2023-05-06T02:09:53.019Z,13.40
2023-05-06T02:12:20.170Z,13.40
2023-05-06T02:14:48.286Z,13.40
2023-05-06T02:17:15.416Z,13.40
2023-05-06T02:19:42.322Z,13.40
2023-05-06T02:22:09.413Z,13.40
2023-05-06T02:24:36.154Z,13.40
2023-05-06T02:27:04.505Z,13.40
2023-05-06T02:29:31.358Z,13.40
2023-05-06T02:31:59.877Z,13.40
2023-05-06T02:34:26.758Z,13.30
2023-05-06T02:36:53.868Z,13.30
2023-05-06T02:39:20.653Z,13.30
2023-05-06T02:41:47.748Z,13.20
2023-05-06T02:44:14.527Z,13.20
2023-05-06T02:46:41.336Z,13.20
2023-05-06T02:49:09.753Z,13.10
2023-05-06T02:51:36.580Z,13.20
2023-05-06T02:54:03.867Z,13.10
2023-05-06T02:56:31.490Z,13.10
2023-05-06T02:58:58.357Z,13.10
2023-05-06T03:01:25.822Z,13.10
2023-05-06T03:03:52.809Z,13.10
2023-05-06T03:06:20.994Z,13.10
2023-05-06T03:08:48.208Z,13.10
2023-05-06T03:11:15.382Z,13.00
2023-05-06T03:13:42.249Z,13.00
2023-05-06T03:16:13.145Z,13.00
2023-05-06T03:18:40.437Z,13.00
2023-05-06T03:21:07.489Z,12.90
2023-05-06T03:23:35.987Z,13.00
2023-05-06T03:26:02.815Z,12.90
2023-05-06T03:28:29.611Z,12.90
2023-05-06T03:30:56.807Z,12.90
2023-05-06T03:33:23.642Z,12.90
2023-05-06T03:35:50.469Z,12.90
2023-05-06T03:38:17.631Z,12.90
2023-05-06T03:40:46.045Z,12.90
2023-05-06T03:43:13.255Z,12.80
2023-05-06T03:45:40.378Z,12.80
2023-05-06T03:48:07.315Z,12.80
2023-05-06T03:50:34.191Z,12.90
2023-05-06T03:53:01.506Z,12.80
2023-05-06T03:55:28.370Z,12.80
2023-05-06T03:57:56.578Z,12.80
2023-05-06T04:00:23.540Z,12.80
2023-05-06T04:02:51.102Z,12.80
2023-05-06T04:05:18.179Z,12.70
2023-05-06T04:07:45.605Z,12.70
2023-05-06T04:10:12.941Z,12.70
2023-05-06T04:12:40.188Z,12.70
2023-05-06T04:15:10.446Z,12.70
2023-05-06T04:17:37.890Z,12.70
2023-05-06T04:20:06.952Z,12.70
2023-05-06T04:22:34.068Z,12.70
2023-05-06T04:25:01.103Z,12.70
2023-05-06T04:27:30.063Z,12.80
2023-05-06T04:29:56.982Z,12.80
2023-05-06T04:32:25.616Z,12.80
2023-05-06T04:34:53.190Z,12.80
2023-05-06T04:37:21.374Z,12.80
2023-05-06T04:39:48.762Z,12.80
2023-05-06T04:42:16.847Z,12.70
2023-05-06T04:44:43.900Z,12.70
2023-05-06T04:47:10.863Z,12.60
2023-05-06T04:49:39.438Z,12.50
2023-05-06T04:52:06.676Z,12.50
2023-05-06T04:54:33.645Z,12.60
2023-05-06T04:57:01.223Z,12.50
2023-05-06T04:59:28.015Z,12.50
2023-05-06T05:01:55.269Z,12.50
2023-05-06T05:04:22.097Z,12.60
2023-05-06T05:06:50.674Z,12.50
2023-05-06T05:09:17.563Z,12.60
2023-05-06T05:11:44.463Z,12.60
2023-05-06T05:14:11.332Z,12.60
2023-05-06T05:16:38.449Z,12.60
2023-05-06T05:19:08.343Z,12.60
2023-05-06T05:21:36.396Z,12.60
2023-05-06T05:24:05.431Z,12.60
2023-05-06T05:26:32.255Z,12.60
2023-05-06T05:28:59.465Z,12.60
2023-05-06T05:31:26.404Z,12.60
2023-05-06T05:33:53.678Z,12.60
2023-05-06T05:36:20.973Z,12.70
2023-05-06T05:38:48.084Z,12.70
2023-05-06T05:41:17.529Z,12.60
2023-05-06T05:43:44.938Z,12.70
2023-05-06T05:46:11.810Z,12.80
2023-05-06T05:48:40.322Z,12.80
2023-05-06T05:51:07.176Z,12.80
2023-05-06T05:53:34.337Z,12.80
2023-05-06T05:56:01.128Z,12.90
2023-05-06T05:58:29.271Z,13.00
2023-05-06T06:00:56.135Z,12.90
2023-05-06T06:03:23.375Z,12.90
2023-05-06T06:05:52.790Z,12.80
2023-05-06T06:08:19.965Z,12.80
2023-05-06T06:10:47.279Z,12.70
2023-05-06T06:13:14.505Z,12.60
2023-05-06T06:15:42.842Z,12.70
2023-05-06T06:18:10.151Z,12.70
2023-05-06T06:20:37.417Z,12.60
2023-05-06T06:23:04.292Z,12.70
2023-05-06T06:25:31.155Z,12.80
2023-05-06T06:27:58.232Z,12.80
2023-05-06T06:30:25.285Z,12.80
2023-05-06T06:32:55.123Z,12.90
2023-05-06T06:35:22.132Z,12.90
2023-05-06T06:37:49.405Z,13.00
2023-05-06T06:40:16.934Z,13.00
2023-05-06T06:42:44.195Z,13.00
2023-05-06T06:45:12.069Z,13.10
2023-05-06T06:47:39.395Z,13.10
2023-05-06T06:50:09.394Z,13.30
2023-05-06T06:52:36.900Z,13.30
2023-05-06T06:55:04.341Z,13.40
2023-05-06T06:57:31.537Z,13.50
2023-05-06T06:59:58.328Z,13.50
2023-05-06T07:02:25.290Z,13.50
2023-05-06T07:04:52.121Z,13.50
2023-05-06T07:07:20.907Z,13.30
2023-05-06T07:09:48.212Z,13.20
2023-05-06T07:12:15.494Z,13.10
2023-05-06T07:14:43.642Z,13.10
2023-05-06T07:17:10.966Z,13.10
2023-05-06T07:19:37.919Z,13.00
2023-05-06T07:22:05.350Z,13.10
2023-05-06T07:24:33.726Z,13.10
2023-05-06T07:27:01.162Z,13.10
2023-05-06T07:29:28.314Z,13.00
2023-05-06T07:31:55.437Z,13.00
2023-05-06T07:34:22.364Z,12.90
2023-05-06T07:36:50.468Z,13.00
2023-05-06T07:39:17.432Z,13.10
2023-05-06T07:41:46.247Z,13.30
2023-05-06T07:44:13.154Z,13.50
2023-05-06T07:46:40.666Z,13.70
2023-05-06T07:49:07.891Z,13.80
2023-05-06T07:51:35.228Z,13.90
2023-05-06T07:54:02.190Z,13.90
2023-05-06T07:56:29.859Z,14.00
2023-05-06T07:58:59.266Z,14.20
2023-05-06T08:01:27.566Z,14.40
2023-05-06T08:03:54.456Z,14.40
2023-05-06T08:06:21.725Z,14.50
2023-05-06T08:08:48.503Z,14.50
2023-05-06T08:11:16.976Z,14.60
2023-05-06T08:13:44.898Z,14.60
2023-05-06T08:16:13.555Z,14.60
2023-05-06T08:18:40.533Z,14.50
2023-05-06T08:21:07.756Z,14.40
2023-05-06T08:23:34.668Z,14.40
2023-05-06T08:26:02.193Z,14.40
2023-05-06T08:28:29.289Z,14.40
2023-05-06T08:30:56.103Z,14.30
2023-05-06T08:33:24.560Z,14.30
2023-05-06T08:35:51.356Z,14.30
2023-05-06T08:38:18.763Z,14.50
2023-05-06T08:40:46.197Z,14.60
2023-05-06T08:43:14.486Z,14.80
2023-05-06T08:45:41.985Z,14.80
2023-05-06T08:48:09.761Z,14.70
2023-05-06T08:50:42.190Z,14.70
2023-05-06T08:53:11.551Z,14.80
2023-05-06T08:55:40.284Z,15.00
2023-05-06T08:58:08.364Z,15.30
2023-05-06T09:00:35.755Z,15.60
2023-05-06T09:03:03.124Z,15.60
2023-05-06T09:05:29.975Z,15.50
2023-05-06T09:07:58.443Z,15.40
2023-05-06T09:10:31.066Z,15.40
2023-05-06T09:12:57.928Z,15.60
2023-05-06T09:15:26.180Z,16.10
2023-05-06T09:17:55.290Z,16.30
2023-05-06T09:20:22.272Z,16.40
2023-05-06T09:22:49.713Z,16.20
2023-05-06T09:25:17.947Z,16.10
2023-05-06T09:27:45.161Z,16.10
2023-05-06T09:30:13.368Z,16.10
2023-05-06T09:32:41.256Z,16.10
2023-05-06T09:35:09.684Z,16.20
2023-05-06T09:37:36.770Z,16.20
2023-05-06T09:40:03.910Z,16.40
2023-05-06T09:42:33.023Z,16.60
2023-05-06T09:45:01.894Z,16.50
2023-05-06T09:47:34.115Z,16.30
2023-05-06T09:50:01.550Z,16.50
2023-05-06T09:52:29.694Z,16.70
2023-05-06T09:54:57.461Z,16.60
2023-05-06T09:57:24.826Z,16.80
2023-05-06T09:59:55.528Z,16.90
2023-05-06T10:02:23.794Z,16.80
2023-05-06T10:04:54.713Z,16.80
2023-05-06T10:07:25.937Z,16.70
2023-05-06T10:09:54.478Z,16.50
2023-05-06T10:12:21.609Z,16.40
2023-05-06T10:14:48.528Z,16.40
2023-05-06T10:17:18.860Z,16.40
2023-05-06T10:19:46.970Z,16.40
2023-05-06T10:22:22.314Z,16.60
2023-05-06T10:24:56.161Z,16.90
2023-05-06T10:27:24.979Z,17.10
2023-05-06T10:29:54.120Z,17.10
2023-05-06T10:32:22.621Z,17.00
2023-05-06T10:34:55.420Z,17.10
2023-05-06T10:37:25.903Z,17.60
2023-05-06T10:39:54.696Z,18.00
2023-05-06T10:42:26.674Z,17.90
2023-05-06T10:44:58.263Z,17.80
2023-05-06T10:47:28.143Z,17.80
2023-05-06T10:50:21.435Z,17.50
2023-05-06T10:52:50.871Z,17.60
2023-05-06T10:55:29.154Z,17.60
2023-05-06T10:57:56.785Z,17.70
2023-05-06T11:00:24.295Z,17.90
2023-05-06T11:02:57.236Z,18.00
2023-05-06T11:05:25.175Z,18.10
2023-05-06T11:07:53.148Z,18.60
2023-05-06T11:10:33.388Z,18.90
2023-05-06T11:13:19.688Z,18.90
2023-05-06T11:15:47.291Z,18.80
2023-05-06T11:18:44.027Z,19.20
2023-05-06T11:21:39.153Z,19.10
2023-05-06T11:24:11.112Z,19.00
2023-05-06T11:26:40.704Z,19.10
2023-05-06T11:29:08.573Z,19.20
2023-05-06T11:31:40.246Z,19.90
2023-05-06T11:34:10.752Z,19.80
2023-05-06T11:36:45.793Z,19.00
2023-05-06T11:39:13.014Z,18.50
2023-05-06T11:41:41.082Z,18.10
2023-05-06T11:44:11.523Z,18.10
2023-05-06T11:46:39.032Z,18.10
2023-05-06T11:49:06.461Z,18.30
2023-05-06T11:51:34.785Z,18.30
2023-05-06T11:54:07.230Z,18.40
2023-05-06T11:56:48.383Z,18.60
2023-05-06T11:59:16.323Z,18.50
2023-05-06T12:01:44.396Z,18.40
2023-05-06T12:04:13.259Z,18.20
2023-05-06T12:06:41.841Z,18.10
2023-05-06T12:09:11.739Z,17.90
2023-05-06T12:11:40.052Z,17.90
2023-05-06T12:14:09.118Z,18.40
2023-05-06T12:16:37.166Z,20.10
2023-05-06T12:19:06.003Z,20.60
2023-05-06T12:21:36.846Z,21.40
2023-05-06T12:24:06.190Z,22.70
2023-05-06T12:26:45.063Z,22.60
2023-05-06T12:29:13.314Z,21.90
2023-05-06T12:31:40.308Z,21.30
2023-05-06T12:34:07.477Z,20.90
2023-05-06T12:36:40.165Z,20.30
2023-05-06T12:39:09.476Z,19.90
2023-05-06T12:41:38.833Z,19.50
2023-05-06T12:44:31.445Z,19.20
2023-05-06T12:46:58.666Z,19.00
2023-05-06T12:49:26.173Z,19.00
2023-05-06T12:52:10.114Z,19.40
2023-05-06T12:54:38.750Z,20.00
2023-05-06T12:57:05.857Z,21.40
2023-05-06T12:59:33.694Z,22.70
2023-05-06T13:02:00.774Z,24.40
2023-05-06T13:04:27.937Z,25.30
2023-05-06T13:06:55.676Z,25.60
2023-05-06T13:09:23.188Z,26.10
2023-05-06T13:11:51.698Z,25.80
2023-05-06T13:14:18.870Z,25.00
2023-05-06T13:16:46.465Z,25.80
2023-05-06T13:19:25.136Z,24.80
2023-05-06T13:21:59.050Z,24.40
2023-05-06T13:24:26.179Z,25.60
2023-05-06T13:26:56.005Z,25.30
2023-05-06T13:29:23.563Z,24.30
2023-05-06T13:31:50.988Z,23.10
2023-05-06T13:34:18.272Z,22.20
2023-05-06T13:36:45.126Z,21.70
2023-05-06T13:39:12.161Z,21.30
2023-05-06T13:41:38.969Z,20.80
2023-05-06T13:44:07.069Z,20.50
2023-05-06T13:46:34.401Z,20.20
2023-05-06T13:49:01.322Z,19.80
2023-05-06T13:51:30.960Z,19.60
2023-05-06T13:53:57.944Z,20.30
2023-05-06T13:56:25.281Z,20.80
2023-05-06T13:58:53.182Z,21.40
2023-05-06T14:01:22.437Z,21.50
2023-05-06T14:03:49.371Z,21.90
2023-05-06T14:06:16.730Z,22.10
2023-05-06T14:08:43.554Z,21.70
2023-05-06T14:11:10.837Z,21.30
2023-05-06T14:13:39.377Z,22.20
2023-05-06T14:16:07.238Z,23.90
2023-05-06T14:18:35.589Z,25.40
2023-05-06T14:21:03.216Z,25.90
2023-05-06T14:23:30.083Z,25.10
2023-05-06T14:25:57.309Z,23.90
2023-05-06T14:28:24.180Z,22.80
2023-05-06T14:30:51.791Z,22.20
2023-05-06T14:33:18.586Z,21.90
2023-05-06T14:35:46.767Z,21.50
2023-05-06T14:38:13.625Z,21.40
2023-05-06T14:40:40.478Z,22.30
2023-05-06T14:43:07.832Z,23.50
2023-05-06T14:45:34.810Z,24.90
2023-05-06T14:48:02.235Z,25.00
2023-05-06T14:50:29.991Z,24.20
2023-05-06T14:52:58.612Z,23.20
2023-05-06T14:55:25.853Z,22.10
2023-05-06T14:57:53.140Z,21.30
2023-05-06T15:00:20.528Z,20.70
2023-05-06T15:02:47.932Z,20.10
2023-05-06T15:05:15.155Z,19.70
2023-05-06T15:07:42.398Z,19.50
2023-05-06T15:10:11.271Z,19.50
2023-05-06T15:12:38.525Z,19.70
2023-05-06T15:15:06.987Z,20.10
2023-05-06T15:17:33.918Z,20.20
2023-05-06T15:20:00.885Z,20.10
2023-05-06T15:22:27.753Z,20.70
2023-05-06T15:24:55.100Z,21.50
2023-05-06T15:27:23.699Z,22.50
2023-05-06T15:29:50.894Z,23.40
2023-05-06T15:32:17.680Z,24.40
2023-05-06T15:34:44.860Z,24.70
2023-05-06T15:37:12.081Z,24.60
2023-05-06T15:39:39.284Z,24.80
2023-05-06T15:42:06.261Z,24.70
2023-05-06T15:44:34.819Z,24.10
2023-05-06T15:47:01.743Z,23.00
2023-05-06T15:52:00.862Z,21.60
2023-05-06T15:54:28.323Z,21.00
2023-05-06T15:56:56.264Z,20.70
2023-05-06T15:59:23.454Z,21.30
2023-05-06T16:02:25.335Z,22.60
2023-05-06T16:04:38.756Z,23.40
2023-05-06T16:07:05.785Z,23.30
2023-05-06T16:09:32.898Z,23.40
2023-05-06T16:12:00.019Z,22.70
2023-05-06T16:14:27.320Z,21.80
2023-05-06T16:16:55.593Z,21.80
2023-05-06T16:19:22.762Z,21.10
2023-05-06T16:21:49.732Z,20.60
2023-05-06T16:24:16.837Z,20.80
2023-05-06T16:26:43.633Z,20.80
2023-05-06T16:29:10.954Z,21.20
2023-05-06T16:31:38.130Z,21.80
2023-05-06T16:34:06.866Z,21.70
2023-05-06T16:36:33.674Z,21.50
2023-05-06T16:39:00.936Z,21.50
2023-05-06T16:41:27.707Z,21.10
2023-05-06T16:43:54.833Z,21.00
2023-05-06T16:46:24.278Z,21.10
2023-05-06T16:48:52.074Z,21.20
2023-05-06T16:51:20.576Z,20.70
2023-05-06T16:53:47.434Z,20.20
2023-05-06T16:56:14.225Z,19.50
2023-05-06T16:58:42.912Z,19.10
2023-05-06T17:01:09.984Z,18.40
2023-05-06T17:03:38.627Z,18.10
2023-05-06T17:06:05.914Z,18.00
2023-05-06T17:08:36.582Z,17.70
2023-05-06T17:11:06.708Z,17.40
2023-05-06T17:13:33.970Z,17.10
2023-05-06T17:16:00.901Z,16.70
2023-05-06T17:18:28.091Z,16.50
2023-05-06T17:20:56.731Z,16.20
2023-05-06T17:23:24.697Z,15.70
2023-05-06T17:25:55.167Z,15.40
2023-05-06T17:28:22.375Z,15.20
2023-05-06T17:30:49.225Z,15.20
2023-05-06T17:33:16.372Z,15.20
2023-05-06T17:35:43.177Z,15.30
2023-05-06T17:38:11.280Z,15.30
2023-05-06T17:40:38.148Z,15.20
2023-05-06T17:43:07.607Z,15.10
2023-05-06T17:45:34.463Z,15.00
2023-05-06T17:48:01.354Z,15.00
2023-05-06T17:50:28.145Z,15.00
2023-05-06T17:52:55.738Z,14.80
2023-05-06T17:55:22.856Z,14.80
2023-05-06T17:57:50.555Z,14.50
2023-05-06T18:00:19.207Z,14.40
2023-05-06T18:02:46.700Z,14.30
2023-05-06T18:05:13.824Z,14.20
2023-05-06T18:07:40.993Z,14.10
2023-05-06T18:10:08.912Z,14.10
2023-05-06T18:12:36.026Z,13.90
2023-05-06T18:15:03.138Z,13.80
2023-05-06T18:17:31.785Z,13.70
2023-05-06T18:19:58.649Z,13.50
2023-05-06T18:22:25.976Z,13.40
2023-05-06T18:24:55.135Z,13.30
2023-05-06T18:27:22.578Z,13.30
2023-05-06T18:29:49.579Z,13.30
2023-05-06T18:32:16.779Z,13.30
2023-05-06T18:34:44.970Z,13.20
2023-05-06T18:37:11.860Z,13.20
2023-05-06T18:39:42.901Z,13.20
2023-05-06T18:42:09.904Z,13.10
2023-05-06T18:44:37.317Z,13.00
2023-05-06T18:47:04.410Z,13.00
2023-05-06T18:49:31.469Z,12.90
2023-05-06T18:51:59.841Z,12.90
2023-05-06T18:54:26.692Z,12.80
2023-05-06T18:56:54.577Z,12.70
2023-05-06T18:59:21.629Z,12.60
2023-05-06T19:01:48.465Z,12.50
2023-05-06T19:04:15.388Z,12.50
2023-05-06T19:06:42.479Z,12.50
2023-05-06T19:09:11.380Z,12.60
2023-05-06T19:11:38.551Z,12.50
2023-05-06T19:14:05.623Z,12.50
2023-05-06T19:16:32.464Z,12.40
2023-05-06T19:18:59.601Z,12.40
2023-05-06T19:21:26.536Z,12.40
2023-05-06T19:23:54.792Z,12.40
2023-05-06T19:26:23.101Z,12.50
2023-05-06T19:28:50.039Z,12.40
2023-05-06T19:31:17.142Z,12.40
2023-05-06T19:33:44.219Z,12.40
2023-05-06T19:36:11.273Z,12.30
2023-05-06T19:38:38.196Z,12.30
2023-05-06T19:41:05.095Z,12.20
2023-05-06T19:43:33.548Z,12.20
2023-05-06T19:46:00.469Z,12.10
2023-05-06T19:48:27.639Z,12.20
2023-05-06T19:50:54.393Z,12.20
2023-05-06T19:53:23.002Z,12.20
2023-05-06T19:55:49.994Z,12.20
2023-05-06T19:58:17.351Z,12.30
2023-05-06T20:00:46.205Z,12.30
2023-05-06T20:03:13.852Z,12.30
2023-05-06T20:05:41.411Z,12.30
2023-05-06T20:08:11.576Z,12.30
2023-05-06T20:10:38.718Z,12.20
2023-05-06T20:13:07.210Z,12.20
2023-05-06T20:15:35.337Z,12.10
2023-05-06T20:18:04.231Z,12.10
2023-05-06T20:20:34.300Z,12.00
2023-05-06T20:23:04.989Z,12.00
2023-05-06T20:25:32.209Z,12.00
2023-05-06T20:27:59.689Z,12.10
2023-05-06T20:30:26.894Z,11.90
2023-05-06T20:32:54.491Z,11.80
2023-05-06T20:35:23.054Z,11.70
2023-05-06T20:37:50.161Z,11.70
2023-05-06T20:40:17.013Z,11.60
2023-05-06T20:42:44.133Z,11.60
2023-05-06T20:45:11.312Z,11.50
2023-05-06T20:47:38.784Z,11.50
2023-05-06T20:50:07.375Z,11.50
2023-05-06T20:52:35.896Z,11.40
2023-05-06T20:55:03.211Z,11.60
2023-05-06T20:57:30.149Z,11.30
2023-05-06T20:59:57.027Z,11.20
2023-05-06T21:02:24.451Z,11.20
2023-05-06T21:04:51.800Z,11.10
2023-05-06T21:07:18.573Z,11.10
2023-05-06T21:09:47.156Z,11.10
2023-05-06T21:12:14.049Z,11.10
2023-05-06T21:14:41.333Z,11.20
2023-05-06T21:17:08.428Z,11.20
2023-05-06T21:19:35.977Z,11.20
2023-05-06T21:22:02.957Z,11.20
2023-05-06T21:24:31.095Z,11.10
2023-05-06T21:26:59.274Z,11.10
2023-05-06T21:29:26.497Z,11.10
2023-05-06T21:31:53.275Z,11.10
2023-05-06T21:34:20.559Z,11.10
2023-05-06T21:36:47.427Z,11.10
2023-05-06T21:39:14.705Z,11.20
2023-05-06T21:41:41.855Z,11.20
2023-05-06T21:44:10.646Z,11.20
2023-05-06T21:46:38.094Z,11.20
2023-05-06T21:49:05.690Z,11.30
2023-05-06T21:51:34.914Z,11.40
2023-05-06T21:54:02.561Z,11.40
2023-05-06T21:56:29.495Z,11.40
2023-05-06T21:58:56.497Z,11.20
2023-05-06T22:01:26.162Z,11.20
2023-05-06T22:03:54.287Z,11.10
2023-05-06T22:06:21.362Z,11.10
2023-05-06T22:08:48.778Z,11.10
2023-05-06T22:11:15.939Z,11.10
2023-05-06T22:13:43.143Z,11.10
2023-05-06T22:16:10.036Z,11.10
2023-05-06T22:18:41.817Z,11.00
2023-05-06T22:21:09.553Z,11.00
2023-05-06T22:23:36.948Z,11.10
2023-05-06T22:26:04.154Z,10.90
2023-05-06T22:28:31.523Z,10.90
2023-05-06T22:30:58.333Z,10.90
2023-05-06T22:33:27.047Z,10.90
2023-05-06T22:35:55.621Z,10.90
2023-05-06T22:38:22.923Z,11.00
2023-05-06T22:40:49.894Z,11.00
2023-05-06T22:43:17.027Z,10.90
2023-05-06T22:45:44.559Z,10.90
2023-05-06T22:48:12.449Z,10.90
2023-05-06T22:50:39.396Z,10.80
2023-05-06T22:53:14.959Z,10.90
2023-05-06T22:55:42.692Z,10.90
2023-05-06T22:58:10.189Z,10.80
2023-05-06T23:00:37.209Z,10.90
2023-05-06T23:03:05.567Z,10.80
2023-05-06T23:05:32.412Z,10.80
2023-05-06T23:07:59.547Z,10.80
2023-05-06T23:10:27.982Z,10.80
2023-05-06T23:12:54.868Z,10.80
2023-05-06T23:15:21.936Z,10.80
2023-05-06T23:17:49.079Z,10.80
2023-05-06T23:20:17.211Z,10.80
2023-05-06T23:22:44.509Z,10.80
2023-05-06T23:25:11.986Z,10.80
2023-05-06T23:27:41.340Z,10.80
2023-05-06T23:30:09.179Z,10.80
2023-05-06T23:32:37.553Z,10.80
2023-05-06T23:35:07.302Z,10.80
2023-05-06T23:37:34.684Z,10.80
2023-05-06T23:40:01.632Z,10.70
2023-05-06T23:42:28.816Z,10.70
2023-05-06T23:45:00.006Z,10.70
2023-05-06T23:47:27.198Z,10.70
2023-05-06T23:49:54.078Z,10.70
2023-05-06T23:52:21.623Z,10.70
2023-05-06T23:54:48.629Z,10.70
2023-05-06T23:57:16.382Z,10.80
2023-05-06T23:59:43.250Z,10.70
